Oktjabr'Skoe, Russia
Current Conditions -  °F | °C
As of 11:30 AM on Sunday 21 Dec 2014 (Local Time) from USHH Reporting Station
Blowing Snow Blowing Snow  
Wind Chill: 12°   Ceiling: 700
Heat Index: 23°   Visibility: 6mi
Dew Point: 21°   Wind: 11mph
Humidity: 93%   Direction: 160°SSE
Pressure: 29.59"   Gusts: 18mph
Location:  62.45°N, 66.05°E
Report Text: USHH 210630Z 16005G08MPS 9000 -SHSN BLSN BKN007CB OVC080M05/M06 Q1002 TEMPO 1000 SHSN BR OVC002 RMK QFE748 24////37
Loading
Personal Weather Stations






























Interactive Weather Map New forecast layout! Learn more

10-Day Weather Forecast

Advertisements
Track Severe Weather on mobile